Time;durP1;ratioP1;P1;durP2;ratioP2;P2;SDS_P1;SDS_P2;PMS_P1;PMS_P2;Temp;Humidity;BMP_temperature;BMP_pressure;BME280_temperature;BME280_humidity;BME280_pressure;Samples;Min_cycle;Max_cycle;Signal;HPM_P1;HPM_P2
2023/01/14 00:00:22;;;;;;;4.72;2.25;;;;;;;18.34;45.23;101227.69;5025345;28;20026;-56
2023/01/14 00:02:47;;;;;;;6.40;2.40;;;;;;;18.34;45.34;101222.31;5025432;28;20021;-50
2023/01/14 00:05:13;;;;;;;2.30;1.65;;;;;;;18.33;45.21;101228.69;5025224;28;20151;-54
2023/01/14 00:07:38;;;;;;;5.65;1.83;;;;;;;18.34;45.32;101232.22;5007484;28;20032;-51
2023/01/14 00:10:04;;;;;;;6.40;2.15;;;;;;;18.33;45.63;101225.16;5025218;28;20074;-54
2023/01/14 00:12:29;;;;;;;6.05;1.92;;;;;;;18.32;45.51;101224.31;5025330;28;20026;-53
2023/01/14 00:14:54;;;;;;;5.10;1.83;;;;;;;18.31;45.04;101221.75;5025225;28;20030;-54
2023/01/14 00:17:20;;;;;;;5.60;2.28;;;;;;;18.30;45.12;101226.31;5025151;28;20022;-54
2023/01/14 00:19:45;;;;;;;5.45;1.90;;;;;;;18.29;45.45;101227.31;5025146;28;20030;-56
2023/01/14 00:22:10;;;;;;;4.28;2.00;;;;;;;18.29;45.39;101231.84;5024869;28;20059;-56
2023/01/14 00:24:35;;;;;;;4.88;2.75;;;;;;;18.28;45.45;101241.78;5024801;28;20510;-56
2023/01/14 00:27:01;;;;;;;7.05;2.50;;;;;;;18.28;45.20;101244.47;5025238;28;20045;-55
2023/01/14 00:29:28;;;;;;;5.55;1.98;;;;;;;18.27;45.48;101245.47;5025103;28;20030;-56
2023/01/14 00:31:55;;;;;;;5.28;2.00;;;;;;;18.26;45.45;101245.63;5025206;28;20026;-54
2023/01/14 00:34:20;;;;;;;3.58;1.77;;;;;;;18.17;45.17;101226.72;5024930;28;20089;-55
2023/01/14 00:36:46;;;;;;;5.25;1.90;;;;;;;18.17;45.30;101221.34;5024970;28;20037;-56
2023/01/14 00:39:12;;;;;;;5.00;2.05;;;;;;;18.25;45.38;101239.41;5024581;28;20045;-53
2023/01/14 00:41:38;;;;;;;7.60;2.70;;;;;;;18.23;45.09;101244.94;5025191;28;20030;-54
2023/01/14 00:44:03;;;;;;;6.25;2.10;;;;;;;18.16;45.40;101238.50;5007378;28;20033;-55
2023/01/14 00:46:31;;;;;;;5.00;1.75;;;;;;;18.23;45.09;101253.03;5025074;28;20057;-53
2023/01/14 00:48:58;;;;;;;6.07;2.33;;;;;;;18.22;45.10;101262.09;5024962;28;20054;-54
2023/01/14 00:51:24;;;;;;;7.03;1.98;;;;;;;18.21;45.11;101257.69;5024911;28;20029;-56
2023/01/14 00:53:49;;;;;;;6.03;1.95;;;;;;;18.20;45.23;101253.31;4976142;28;20034;-54
2023/01/14 00:56:16;;;;;;;5.13;1.90;;;;;;;18.20;45.23;101258.72;5015791;28;20030;-51
2023/01/14 00:58:41;;;;;;;5.82;1.88;;;;;;;18.20;45.26;101260.56;5024972;28;20021;-52
2023/01/14 01:01:07;;;;;;;5.35;1.80;;;;;;;18.18;45.19;101265.22;5024655;28;20489;-54
2023/01/14 01:03:37;;;;;;;3.70;1.83;;;;;;;18.18;45.31;101258.03;5024834;28;20030;-56
2023/01/14 01:06:02;;;;;;;3.40;1.73;;;;;;;18.17;45.46;101260.84;5024678;28;20060;-54
2023/01/14 01:08:28;;;;;;;5.10;2.30;;;;;;;18.11;45.15;101253.41;5024486;28;20022;-55
2023/01/14 01:10:54;;;;;;;6.50;1.90;;;;;;;18.16;45.37;101260.00;5024897;28;20549;-55
2023/01/14 01:13:22;;;;;;;4.93;1.80;;;;;;;18.16;45.37;101269.94;5024808;28;20032;-55
2023/01/14 01:15:48;;;;;;;6.28;2.55;;;;;;;18.15;45.08;101276.34;5024875;28;20032;-53
2023/01/14 01:18:13;;;;;;;5.45;2.08;;;;;;;17.98;45.05;101248.44;5024457;28;20033;-55
2023/01/14 01:20:39;;;;;;;4.97;1.80;;;;;;;18.14;45.20;101288.94;5024595;28;20030;-54
2023/01/14 01:23:05;;;;;;;5.40;1.70;;;;;;;18.10;45.18;101284.88;5024258;28;20113;-54
2023/01/14 01:25:30;;;;;;;4.03;1.77;;;;;;;18.13;45.31;101292.59;5026910;28;20028;-55
2023/01/14 01:27:57;;;;;;;5.78;1.80;;;;;;;18.10;45.16;101281.34;5028575;28;20036;-54
2023/01/14 01:30:23;;;;;;;4.50;1.80;;;;;;;18.12;45.22;101290.09;5028458;28;20014;-52
2023/01/14 01:32:49;;;;;;;6.38;2.00;;;;;;;18.10;45.21;101290.25;5028479;28;20081;-53
2023/01/14 01:35:14;;;;;;;5.03;1.80;;;;;;;18.10;45.19;101279.50;5028143;28;20022;-53
2023/01/14 01:37:39;;;;;;;3.60;2.00;;;;;;;18.10;45.28;101281.34;5028069;28;20046;-52
2023/01/14 01:40:05;;;;;;;2.95;1.67;;;;;;;18.09;45.30;101285.84;5028195;28;20041;-53
2023/01/14 01:42:35;;;;;;;4.10;2.00;;;;;;;18.08;45.32;101291.38;5028183;28;20034;-51
2023/01/14 01:45:19;;;;;;;5.40;1.92;;;;;;;18.08;45.13;101294.91;5010385;28;20113;-55
2023/01/14 01:47:44;;;;;;;5.88;2.28;;;;;;;18.07;45.56;101301.31;5010453;28;20053;-53
2023/01/14 01:50:10;;;;;;;5.15;1.77;;;;;;;18.06;45.17;101296.09;5028052;28;20096;-52
2023/01/14 01:52:35;;;;;;;3.10;1.80;;;;;;;18.05;45.18;101297.06;5027427;28;20068;-51
2023/01/14 01:55:06;;;;;;;3.90;1.60;;;;;;;18.05;45.19;101287.16;5009914;28;20026;-54
2023/01/14 01:57:32;;;;;;;4.25;1.60;;;;;;;17.97;45.42;101285.25;5028147;28;20030;-52
2023/01/14 02:00:02;;;;;;;3.47;1.42;;;;;;;18.03;45.42;101299.94;5010265;28;20048;-54
2023/01/14 02:02:28;;;;;;;4.47;1.55;;;;;;;18.00;45.21;101294.84;5027865;28;20037;-53
2023/01/14 02:04:53;;;;;;;4.45;2.15;;;;;;;18.03;45.34;101309.84;5027258;28;20037;-55
2023/01/14 02:07:21;;;;;;;5.35;1.80;;;;;;;18.02;45.39;101297.41;5027367;28;20026;-48
2023/01/14 02:09:48;;;;;;;5.63;2.00;;;;;;;18.01;45.30;101293.88;5027384;28;20069;-53
2023/01/14 02:12:19;;;;;;;5.05;2.22;;;;;;;18.01;45.37;101293.88;5027512;28;20101;-53
2023/01/14 02:14:53;;;;;;;3.92;1.83;;;;;;;18.00;45.47;101294.84;5027522;28;20049;-55
2023/01/14 02:17:39;;;;;;;6.00;2.15;;;;;;;18.00;45.59;101284.06;5009729;28;20028;-53
2023/01/14 02:20:32;;;;;;;4.72;1.85;;;;;;;17.99;45.32;101282.41;5009728;28;20022;-54
2023/01/14 02:23:39;;;;;;;6.35;1.63;;;;;;;17.98;45.48;101270.78;5008871;28;20065;-53
2023/01/14 02:26:35;;;;;;;3.80;1.75;;;;;;;17.98;45.65;101269.94;5009924;28;20080;-51
2023/01/14 02:29:25;;;;;;;4.88;1.63;;;;;;;17.96;45.52;101275.47;5009649;28;20024;-53
2023/01/14 02:32:15;;;;;;;5.60;1.90;;;;;;;17.96;45.46;101266.56;5007159;28;20029;-53
2023/01/14 02:34:52;;;;;;;3.25;1.70;;;;;;;17.96;45.37;101271.94;5020343;28;20022;-51
2023/01/14 02:37:24;;;;;;;5.63;2.00;;;;;;;17.91;45.72;101253.56;5009355;28;20053;-54
2023/01/14 02:39:53;;;;;;;5.03;1.80;;;;;;;17.93;45.66;101256.97;5009293;28;20094;-51
2023/01/14 02:45:24;;;;;;;4.82;2.17;;;;;;;17.93;45.58;101256.97;5027061;28;20061;-56
2023/01/14 02:47:50;;;;;;;3.97;1.52;;;;;;;17.93;45.74;101242.66;5009249;28;20056;-53
2023/01/14 02:50:16;;;;;;;4.30;1.85;;;;;;;17.92;45.62;101228.34;5026969;28;20073;-53
2023/01/14 02:52:41;;;;;;;3.70;1.70;;;;;;;17.92;45.72;101228.34;5026313;28;20041;-55
2023/01/14 02:55:32;;;;;;;4.65;1.70;;;;;;;17.92;45.52;101236.41;5026236;28;20033;-51
2023/01/14 02:58:35;;;;;;;4.30;1.58;;;;;;;17.91;45.56;101232.03;5026825;28;20100;-54
2023/01/14 03:01:26;;;;;;;4.15;1.98;;;;;;;17.90;45.52;101226.84;5026521;28;20052;-53
2023/01/14 03:04:14;;;;;;;3.70;1.73;;;;;;;17.90;45.48;101229.53;5022983;28;20056;-52
2023/01/14 03:06:50;;;;;;;3.15;1.70;;;;;;;17.89;45.64;101219.78;5026525;28;20672;-54
2023/01/14 03:09:40;;;;;;;3.97;1.40;;;;;;;17.88;45.73;101220.75;5025769;28;20018;-50
2023/01/14 03:12:21;;;;;;;3.97;1.55;;;;;;;17.88;45.45;101218.06;5008879;28;20030;-52
2023/01/14 03:15:14;;;;;;;5.43;1.63;;;;;;;17.87;45.49;101211.00;5008720;28;20133;-53
2023/01/14 03:17:45;;;;;;;4.68;1.98;;;;;;;17.86;45.51;101204.75;4981473;28;20049;-50
2023/01/14 03:20:40;;;;;;;4.20;1.60;;;;;;;17.86;45.84;101220.06;5026256;28;20026;-50
2023/01/14 03:23:09;;;;;;;4.15;1.83;;;;;;;17.85;45.65;101210.31;5025987;28;20038;-54
2023/01/14 03:25:38;;;;;;;4.50;1.60;;;;;;;17.84;45.60;101204.09;5008330;28;20028;-54
2023/01/14 03:28:04;;;;;;;4.22;1.80;;;;;;;17.84;45.49;101208.59;5026113;28;20041;-54
2023/01/14 03:30:34;;;;;;;5.60;2.10;;;;;;;17.84;45.63;101203.22;5008492;28;20033;-54
2023/01/14 03:33:04;;;;;;;4.30;1.77;;;;;;;17.84;45.67;101206.78;5008369;28;20479;-53
2023/01/14 03:35:40;;;;;;;4.63;1.80;;;;;;;17.82;45.78;101199.84;4988574;28;20035;-54
2023/01/14 03:38:12;;;;;;;6.32;1.92;;;;;;;17.83;45.48;101196.16;4988627;28;20510;-50
2023/01/14 03:40:38;;;;;;;4.63;1.65;;;;;;;17.81;45.72;101212.47;4988669;28;20046;-53
2023/01/14 03:43:10;;;;;;;5.25;1.80;;;;;;;17.82;45.79;101213.31;5003241;28;20467;-51
2023/01/14 03:45:38;;;;;;;3.70;1.58;;;;;;;17.81;45.54;101214.31;5025669;28;20036;-53
2023/01/14 03:48:04;;;;;;;4.78;1.88;;;;;;;17.81;45.72;101214.31;5007558;28;20026;-54
2023/01/14 03:50:50;;;;;;;4.25;1.63;;;;;;;17.80;45.58;101217.97;5008020;28;20049;-53
2023/01/14 03:53:22;;;;;;;4.00;1.90;;;;;;;17.79;45.73;101218.97;5008037;28;20108;-48
2023/01/14 03:55:54;;;;;;;4.63;2.10;;;;;;;17.79;45.72;101202.84;5007680;28;20029;-53
2023/01/14 03:58:26;;;;;;;4.60;1.90;;;;;;;17.78;45.63;101188.56;5025590;28;20037;-50
2023/01/14 04:01:05;;;;;;;3.35;1.90;;;;;;;17.69;45.63;101174.16;5025384;28;20018;-54
2023/01/14 04:03:31;;;;;;;4.22;2.08;;;;;;;17.78;45.53;101185.03;5007865;28;20028;-53
2023/01/14 04:05:56;;;;;;;5.88;2.45;;;;;;;17.76;45.42;101174.44;5007456;28;20026;-50
2023/01/14 04:08:23;;;;;;;4.25;1.83;;;;;;;17.75;45.81;101175.41;5025221;28;20139;-54
2023/01/14 04:10:49;;;;;;;5.25;2.33;;;;;;;17.74;45.77;101165.66;5007563;28;20056;-51
2023/01/14 04:15:59;;;;;;;3.08;1.45;;;;;;;17.74;45.50;101171.03;5025523;28;20028;-50
2023/01/14 04:18:24;;;;;;;3.40;1.73;;;;;;;17.73;45.68;101169.31;5025081;28;20027;-54
2023/01/14 04:20:49;;;;;;;4.03;1.60;;;;;;;17.74;45.61;101162.97;5025380;28;20037;-51
2023/01/14 04:23:15;;;;;;;4.05;1.80;;;;;;;17.72;45.53;101157.72;5025096;28;20030;-51
2023/01/14 04:25:40;;;;;;;6.47;2.03;;;;;;;17.72;45.77;101160.41;5025182;28;20084;-53
2023/01/14 04:28:05;;;;;;;5.75;2.42;;;;;;;17.70;45.51;101154.31;5025280;28;20030;-49
2023/01/14 04:30:30;;;;;;;5.20;2.10;;;;;;;17.71;45.76;101158.72;5025230;28;20025;-51
2023/01/14 04:32:56;;;;;;;5.07;2.03;;;;;;;17.71;45.78;101152.47;5025077;28;20556;-53
2023/01/14 04:35:21;;;;;;;5.30;1.73;;;;;;;17.71;45.57;101158.72;5024687;28;20049;-50
2023/01/14 04:37:46;;;;;;;3.50;1.90;;;;;;;17.71;45.80;101153.34;5007289;28;20129;-50
2023/01/14 04:40:12;;;;;;;4.40;1.98;;;;;;;17.70;45.85;101143.56;5005043;28;20033;-53
2023/01/14 04:42:37;;;;;;;5.70;1.77;;;;;;;17.66;45.82;101142.19;5005634;28;20033;-52
2023/01/14 04:45:04;;;;;;;5.00;1.92;;;;;;;17.69;45.73;101133.81;5005253;28;20034;-52
2023/01/14 04:47:30;;;;;;;4.72;2.63;;;;;;;17.68;45.86;101148.28;4987763;28;20081;-50
2023/01/14 04:49:55;;;;;;;7.10;2.17;;;;;;;17.67;45.83;101145.72;5005255;28;20054;-52
2023/01/14 04:52:23;;;;;;;5.00;1.88;;;;;;;17.68;45.91;101144.75;5005402;28;20500;-50
2023/01/14 04:54:49;;;;;;;3.58;2.00;;;;;;;17.68;45.85;101142.06;5005065;28;20125;-50
2023/01/14 04:57:14;;;;;;;4.18;2.00;;;;;;;17.67;45.53;101134.97;5023954;28;20475;-49
2023/01/14 04:59:39;;;;;;;5.72;1.98;;;;;;;17.63;45.62;101121.00;5025799;28;20025;-53
2023/01/14 05:02:05;;;;;;;4.95;2.50;;;;;;;17.68;45.69;101115.16;5028947;28;20072;-51
2023/01/14 05:04:33;;;;;;;5.50;3.00;;;;;;;17.67;45.81;101113.44;5023989;28;20029;-51
2023/01/14 05:07:01;;;;;;;7.05;2.65;;;;;;;17.66;45.95;101101.84;5027166;28;20548;-52
2023/01/14 05:09:26;;;;;;;5.05;2.25;;;;;;;17.65;45.90;101097.47;5015542;28;20497;-51
2023/01/14 05:11:52;;;;;;;4.25;1.80;;;;;;;17.66;45.82;101101.00;5022364;28;20027;-50
2023/01/14 05:14:17;;;;;;;5.57;2.42;;;;;;;17.64;45.78;101090.44;5008462;28;20129;-50
2023/01/14 05:16:42;;;;;;;6.75;2.78;;;;;;;17.63;45.87;101087.91;5022542;28;20022;-52
2023/01/14 05:19:07;;;;;;;4.43;1.70;;;;;;;17.64;45.81;101087.75;5018296;28;20037;-52
2023/01/14 05:21:33;;;;;;;4.40;2.30;;;;;;;17.66;45.83;101074.13;5026525;28;20784;-50
2023/01/14 05:23:58;;;;;;;6.78;2.90;;;;;;;17.66;46.03;101074.13;5015539;28;20445;-53
2023/01/14 05:26:23;;;;;;;4.93;1.90;;;;;;;17.67;45.75;101068.63;5024979;28;20045;-52
2023/01/14 05:28:48;;;;;;;6.20;2.10;;;;;;;17.66;45.82;101060.69;5024065;28;20022;-54
2023/01/14 05:31:14;;;;;;;5.88;2.00;;;;;;;17.66;46.09;101056.16;5025225;28;20071;-47
2023/01/14 05:33:39;;;;;;;5.60;2.20;;;;;;;17.66;45.73;101047.25;5007415;28;20018;-53
2023/01/14 05:36:05;;;;;;;5.57;1.88;;;;;;;17.67;46.07;101044.41;5026192;28;20025;-50
2023/01/14 05:38:30;;;;;;;4.70;2.13;;;;;;;17.68;45.82;101031.81;5024716;28;20486;-51
2023/01/14 05:40:55;;;;;;;5.90;1.98;;;;;;;17.68;45.86;101021.91;5013391;28;20040;-50
2023/01/14 05:46:07;;;;;;;6.68;2.20;;;;;;;17.69;46.35;101014.66;5011931;28;20056;-53
2023/01/14 05:48:33;;;;;;;5.97;2.00;;;;;;;17.69;46.25;101001.22;5023165;28;20379;-51
2023/01/14 05:50:59;;;;;;;6.72;2.35;;;;;;;17.70;46.31;101001.06;5022723;28;20030;-51
2023/01/14 05:53:26;;;;;;;4.47;2.00;;;;;;;17.70;46.39;101001.06;5024331;28;20029;-53
2023/01/14 05:55:52;;;;;;;5.50;2.50;;;;;;;17.70;46.65;100989.47;5021167;28;20053;-53
2023/01/14 05:58:18;;;;;;;6.65;2.92;;;;;;;17.73;46.49;100983.75;5006601;28;20030;-53
2023/01/14 06:06:21;;;;;;;5.40;2.10;;;;;;;17.76;46.94;100963.81;5009831;28;20048;-53
2023/01/14 06:08:46;;;;;;;8.73;2.85;;;;;;;17.75;46.68;100960.25;5014338;28;20038;-53
2023/01/14 06:11:11;;;;;;;3.90;1.85;;;;;;;17.76;46.87;100956.59;5020680;28;20060;-51
2023/01/14 06:13:37;;;;;;;8.90;2.30;;;;;;;17.77;47.07;100950.22;5023948;28;20037;-52
2023/01/14 06:16:06;;;;;;;5.35;2.25;;;;;;;17.76;47.02;100948.53;5020470;28;20056;-55
2023/01/14 06:18:37;;;;;;;;;;;;;;;17.76;46.93;100937.78;5022958;28;20029;-53
2023/01/14 06:21:03;;;;;;;6.50;2.60;;;;;;;17.77;46.95;100939.44;5022998;28;19972;-54
2023/01/14 06:23:28;;;;;;;9.93;3.17;;;;;;;17.76;47.01;100929.72;5021131;28;20022;-54
2023/01/14 06:25:53;;;;;;;6.20;2.63;;;;;;;17.76;46.99;100924.31;5016625;28;20084;-54
2023/01/14 06:28:19;;;;;;;6.10;2.20;;;;;;;17.76;46.95;100916.25;5021438;28;20080;-53
2023/01/14 06:30:44;;;;;;;6.20;2.63;;;;;;;17.75;46.87;100909.16;5020508;28;20047;-51
2023/01/14 06:33:10;;;;;;;8.00;2.90;;;;;;;17.76;47.18;100905.50;5019644;28;20033;-51
2023/01/14 06:35:41;;;;;;;5.75;2.20;;;;;;;17.78;47.11;100894.56;5022378;28;20442;-52
2023/01/14 06:38:06;;;;;;;6.22;2.60;;;;;;;17.78;47.22;100894.56;4985518;28;1040012;-53
2023/01/14 06:40:32;;;;;;;8.23;2.92;;;;;;;17.79;47.25;100890.88;5022600;28;20442;-51
2023/01/14 06:42:57;;;;;;;6.22;2.33;;;;;;;17.80;47.06;100881.78;5021965;28;20037;-50
2023/01/14 06:45:23;;;;;;;9.10;2.53;;;;;;;17.80;47.10;100877.28;5021534;28;20026;-51
2023/01/14 06:47:50;;;;;;;5.45;1.98;;;;;;;17.74;47.17;100862.63;5007395;28;20105;-53
2023/01/14 06:50:18;;;;;;;9.02;2.53;;;;;;;17.81;47.21;100864.69;5022421;28;20021;-54
2023/01/14 06:52:43;;;;;;;7.68;3.22;;;;;;;17.81;47.18;100860.13;5023873;28;20025;-53
2023/01/14 06:55:09;;;;;;;8.30;2.50;;;;;;;17.82;47.18;100852.91;5020945;28;20036;-53
2023/01/14 06:57:34;;;;;;;4.47;2.30;;;;;;;17.73;47.33;100825.13;5025640;28;20040;-54
2023/01/14 06:59:59;;;;;;;9.15;2.42;;;;;;;17.82;47.46;100839.47;5024345;28;20037;-54
2023/01/14 07:02:24;;;;;;;5.75;2.00;;;;;;;17.82;47.18;100836.78;5024412;28;20036;-54
2023/01/14 07:04:50;;;;;;;9.80;2.60;;;;;;;17.82;47.16;100826.00;5020121;28;20025;-53
2023/01/14 07:07:15;;;;;;;5.82;2.38;;;;;;;17.83;47.34;100831.22;5022833;28;20037;-55
2023/01/14 07:09:41;;;;;;;7.03;2.78;;;;;;;17.65;47.27;100799.03;5018135;28;20027;-54
2023/01/14 07:12:06;;;;;;;6.50;2.85;;;;;;;17.83;47.32;100816.94;5006030;28;20044;-56
2023/01/14 07:14:31;;;;;;;6.25;2.10;;;;;;;17.84;47.37;100819.47;5020839;28;20069;-54
2023/01/14 07:16:56;;;;;;;5.97;2.50;;;;;;;17.83;47.37;100812.38;5021708;28;20022;-56
2023/01/14 07:19:21;;;;;;;6.60;2.30;;;;;;;17.83;47.17;100806.19;5022607;28;20042;-56
2023/01/14 07:21:47;;;;;;;7.85;2.20;;;;;;;17.80;47.19;100801.97;5008851;28;20034;-54
2023/01/14 07:24:12;;;;;;;6.57;2.35;;;;;;;17.79;47.27;100792.22;5008278;28;20071;-56
2023/01/14 07:26:38;;;;;;;6.78;2.00;;;;;;;17.82;47.06;100789.19;5012575;28;20038;-54
2023/01/14 07:29:03;;;;;;;7.43;2.70;;;;;;;17.83;47.16;100784.66;5025075;28;20034;-54
2023/01/14 07:31:28;;;;;;;6.63;2.42;;;;;;;17.86;47.08;100778.97;5022979;28;20558;-50
2023/01/14 07:33:54;;;;;;;6.78;2.05;;;;;;;17.90;46.82;100772.25;5012704;28;20026;-54
2023/01/14 07:36:19;;;;;;;5.15;1.83;;;;;;;17.93;46.73;100767.38;5013029;28;20054;-54
2023/01/14 07:38:44;;;;;;;5.70;2.30;;;;;;;17.94;46.95;100763.69;5011153;28;20045;-54
2023/01/14 07:41:11;;;;;;;4.43;1.90;;;;;;;17.92;46.74;100759.47;4996713;28;20030;-52
2023/01/14 07:43:36;;;;;;;6.75;2.35;;;;;;;17.95;46.96;100756.44;4997300;28;20018;-56
2023/01/14 07:46:02;;;;;;;7.70;2.92;;;;;;;17.91;46.83;100731.72;5014705;28;20033;-54
2023/01/14 07:48:30;;;;;;;5.88;2.03;;;;;;;17.97;46.82;100727.53;5012874;28;20032;-53
2023/01/14 07:50:56;;;;;;;6.88;2.03;;;;;;;17.98;46.73;100722.00;5016345;28;20026;-53
2023/01/14 07:53:21;;;;;;;5.53;2.25;;;;;;;17.98;46.76;100713.09;5011632;28;20656;-51
2023/01/14 07:55:46;;;;;;;7.30;2.60;;;;;;;17.97;46.48;100696.09;5018080;28;20026;-49
2023/01/14 07:58:14;;;;;;;6.93;2.20;;;;;;;17.99;46.64;100685.16;4995128;28;20022;-52
2023/01/14 08:00:39;;;;;;;7.28;2.10;;;;;;;17.98;46.38;100680.81;5015236;28;20026;-53
2023/01/14 08:03:04;;;;;;;6.18;2.20;;;;;;;17.98;46.44;100670.88;5013892;28;20022;-52
2023/01/14 08:05:30;;;;;;;7.25;2.20;;;;;;;18.00;46.47;100670.69;5013273;28;20030;-54
2023/01/14 08:07:55;;;;;;;7.10;2.47;;;;;;;18.01;46.42;100660.78;5023239;28;20033;-48
2023/01/14 08:10:20;;;;;;;7.00;2.70;;;;;;;18.00;46.33;100651.88;5000687;28;20059;-54
2023/01/14 08:12:45;;;;;;;10.13;2.63;;;;;;;17.97;46.36;100650.38;5008001;28;20045;-47
2023/01/14 08:15:11;;;;;;;5.93;2.65;;;;;;;17.99;46.17;100634.06;5024756;28;20406;-51
2023/01/14 08:17:37;;;;;;;8.15;3.15;;;;;;;17.97;46.25;100620.78;5024806;28;20026;-52
2023/01/14 08:20:03;;;;;;;7.72;2.67;;;;;;;17.97;46.02;100611.88;5008283;28;20054;-53
2023/01/14 08:22:29;;;;;;;5.03;2.85;;;;;;;17.97;46.55;100609.19;5024983;28;20037;-52
2023/01/14 08:24:55;;;;;;;6.50;2.78;;;;;;;17.97;46.21;100604.66;5021455;28;20023;-52
2023/01/14 08:27:20;;;;;;;5.75;1.95;;;;;;;17.97;46.28;100601.13;5024610;28;20021;-51
2023/01/14 08:29:46;;;;;;;4.28;1.83;;;;;;;17.96;46.30;100599.41;5023500;28;20456;-48
2023/01/14 08:32:12;;;;;;;5.93;2.78;;;;;;;17.97;46.46;100599.28;5017374;28;20011;-52
2023/01/14 08:34:38;;;;;;;11.60;3.30;;;;;;;17.96;46.49;100575.22;5006451;28;20085;-50
2023/01/14 08:37:03;;;;;;;7.10;2.55;;;;;;;18.01;46.01;100574.69;5018251;28;20104;-52
2023/01/14 08:39:28;;;;;;;6.85;2.42;;;;;;;18.01;45.87;100561.25;5015449;28;20037;-51
2023/01/14 08:41:53;;;;;;;6.20;2.55;;;;;;;17.96;45.71;100546.47;5015118;28;20030;-52
2023/01/14 08:44:19;;;;;;;4.63;2.13;;;;;;;18.01;45.63;100540.59;5015363;28;20081;-48
2023/01/14 08:46:44;;;;;;;6.75;1.92;;;;;;;18.02;45.99;100539.56;5014238;28;20026;-50
2023/01/14 08:49:10;;;;;;;5.10;2.10;;;;;;;18.02;45.96;100518.06;5017512;28;20049;-51
2023/01/14 08:51:36;;;;;;;6.05;2.25;;;;;;;18.02;45.81;100525.28;5010359;28;20027;-48
2023/01/14 08:54:01;;;;;;;4.82;1.80;;;;;;;18.01;45.69;100513.69;5023391;28;20101;-50
2023/01/14 08:56:27;;;;;;;6.32;2.80;;;;;;;17.93;45.91;100484.13;5024629;28;20022;-50
2023/01/14 08:58:53;;;;;;;4.28;1.73;;;;;;;18.02;45.94;100485.78;5011012;28;20026;-52
2023/01/14 09:01:18;;;;;;;5.13;2.10;;;;;;;18.03;45.62;100478.53;5022269;28;20120;-48
2023/01/14 09:03:45;;;;;;;6.47;2.17;;;;;;;18.01;46.02;100472.47;5018363;28;20041;-54
2023/01/14 09:06:12;;;;;;;3.70;2.10;;;;;;;18.00;46.15;100466.25;5019069;28;20021;-50
2023/01/14 09:19:25;;;;;;;5.35;2.20;;;;;;;17.99;46.22;100441.22;5023961;28;20092;-51
2023/01/14 09:21:50;;;;;;;3.53;1.67;;;;;;;17.98;46.31;100418.03;5023840;28;20078;-49
2023/01/14 09:24:15;;;;;;;6.43;2.25;;;;;;;17.97;46.29;100418.22;5023853;28;20037;-52
2023/01/14 09:26:41;;;;;;;5.85;2.17;;;;;;;17.99;46.06;100411.63;5023873;28;20026;-48
2023/01/14 09:29:06;;;;;;;6.65;2.15;;;;;;;17.96;46.29;100398.53;5023442;28;20053;-50
2023/01/14 09:31:31;;;;;;;5.07;1.90;;;;;;;17.99;46.22;100413.47;5023753;28;20086;-53
2023/01/14 09:33:56;;;;;;;8.82;2.13;;;;;;;17.98;46.48;100407.25;5016565;28;20034;-49
2023/01/14 09:36:21;;;;;;;4.65;2.20;;;;;;;17.94;46.49;100395.19;5015525;28;20038;-52
2023/01/14 09:38:47;;;;;;;4.63;1.63;;;;;;;17.98;46.73;100392.97;5023743;28;20049;-49
2023/01/14 09:41:25;;;;;;;4.13;1.83;;;;;;;18.01;46.67;100399.84;5023645;28;20030;-54
2023/01/14 09:43:50;;;;;;;4.75;1.65;;;;;;;18.02;46.85;100391.63;5004450;28;20018;-51
2023/01/14 09:46:16;;;;;;;3.63;1.80;;;;;;;17.93;46.90;100368.47;5014361;28;20038;-51
2023/01/14 09:48:41;;;;;;;4.03;2.00;;;;;;;18.01;46.58;100365.75;5009218;28;20065;-50
2023/01/14 09:51:44;;;;;;;5.20;1.83;;;;;;;18.02;46.54;100358.50;5027446;28;20084;-50
2023/01/14 09:54:24;;;;;;;3.47;2.15;;;;;;;18.04;46.70;100360.00;5026967;28;20032;-53
2023/01/14 09:57:00;;;;;;;3.63;1.70;;;;;;;18.03;46.65;100355.63;5026174;28;20033;-51
2023/01/14 10:00:03;;;;;;;3.72;1.60;;;;;;;18.03;46.70;100344.03;5009465;28;20113;-53
2023/01/14 10:02:41;;;;;;;5.18;1.48;;;;;;;18.04;46.67;100345.69;5025752;28;20128;-51
2023/01/14 10:05:21;;;;;;;3.90;1.70;;;;;;;18.03;46.70;100339.50;5009307;28;20113;-50
2023/01/14 10:07:48;;;;;;;3.35;2.35;;;;;;;18.05;46.59;100328.53;5025490;28;20029;-49
2023/01/14 10:10:35;;;;;;;4.50;1.98;;;;;;;18.06;46.71;100316.78;5009347;28;20046;-48
2023/01/14 10:13:02;;;;;;;4.63;1.60;;;;;;;18.06;46.55;100292.59;5027195;28;20033;-54
2023/01/14 10:15:53;;;;;;;3.25;1.77;;;;;;;18.05;46.79;100280.13;5023759;28;20032;-54
2023/01/14 10:18:22;;;;;;;2.60;1.38;;;;;;;18.00;46.53;100259.13;5008323;28;20033;-50
2023/01/14 10:20:50;;;;;;;3.17;1.70;;;;;;;18.04;46.39;100248.88;5013013;28;20041;-53
2023/01/14 10:23:22;;;;;;;5.70;2.03;;;;;;;18.04;46.57;100238.09;5026843;28;20029;-50
2023/01/14 10:25:50;;;;;;;2.90;1.52;;;;;;;18.04;46.69;100228.19;5002592;28;20038;-53
2023/01/14 10:28:18;;;;;;;2.85;1.33;;;;;;;18.03;46.43;100213.06;5026697;28;20036;-53
2023/01/14 10:30:44;;;;;;;3.38;1.70;;;;;;;18.05;46.27;100202.13;5009146;28;20037;-53
2023/01/14 10:33:12;;;;;;;2.97;1.48;;;;;;;18.06;46.57;100196.56;4997995;28;20034;-55
2023/01/14 10:35:40;;;;;;;5.30;1.77;;;;;;;18.07;46.46;100183.97;5012662;28;20026;-47
2023/01/14 10:38:05;;;;;;;3.53;1.42;;;;;;;18.05;46.33;100167.16;5022800;28;20606;-51
2023/01/14 10:40:31;;;;;;;6.18;1.70;;;;;;;18.05;46.75;100156.38;5003662;28;20033;-55
2023/01/14 10:42:58;;;;;;;3.17;1.33;;;;;;;18.05;46.93;100159.06;5018236;28;20025;-53
2023/01/14 10:45:23;;;;;;;2.80;1.35;;;;;;;18.05;46.96;100151.00;5026351;28;20033;-50
2023/01/14 10:47:53;;;;;;;3.28;1.60;;;;;;;18.05;47.00;100132.19;5017705;28;20034;-51
2023/01/14 10:50:22;;;;;;;12.43;2.58;;;;;;;18.06;47.18;100121.25;5022105;28;20036;-53
2023/01/14 10:52:49;;;;;;;4.22;1.95;;;;;;;18.08;47.26;100116.50;5018622;28;20033;-57
2023/01/14 10:55:17;;;;;;;2.83;1.45;;;;;;;18.07;47.38;100109.47;5025319;28;20025;-54
2023/01/14 10:58:09;;;;;;;2.13;1.50;;;;;;;18.10;47.19;100086.75;5021158;28;20022;-49
2023/01/14 11:00:39;;;;;;;3.22;1.35;;;;;;;18.10;47.28;100082.22;5005017;28;20057;-52
2023/01/14 11:03:07;;;;;;;3.40;1.35;;;;;;;18.10;47.38;100076.81;5017214;28;20057;-52
2023/01/14 11:05:37;;;;;;;1.70;1.20;;;;;;;18.13;47.40;100059.47;5022792;28;20032;-50
2023/01/14 11:08:19;;;;;;;4.75;1.88;;;;;;;18.14;47.11;100055.78;5004808;28;20032;-53
2023/01/14 11:10:44;;;;;;;2.55;1.27;;;;;;;18.13;47.42;100040.63;5009724;28;20045;-51
2023/01/14 11:13:29;;;;;;;3.80;1.02;;;;;;;18.12;47.31;100033.59;5004812;28;20026;-48
2023/01/14 11:15:55;;;;;;;1.90;1.17;;;;;;;18.12;47.57;100012.91;5022146;28;20045;-50
2023/01/14 11:18:27;;;;;;;2.47;1.20;;;;;;;18.12;47.52;100004.84;5019605;28;20025;-51
2023/01/14 11:21:04;;;;;;;3.08;1.40;;;;;;;18.14;47.27;99980.44;5017859;28;20031;-51
2023/01/14 11:23:38;;;;;;;3.17;1.40;;;;;;;18.14;47.24;99991.22;5001028;28;20022;-52
2023/01/14 11:26:10;;;;;;;2.20;1.10;;;;;;;18.13;47.49;99984.97;5004919;28;20028;-54
2023/01/14 11:28:37;;;;;;;3.00;1.20;;;;;;;18.13;47.73;99971.53;5004092;28;20022;-54
2023/01/14 11:31:02;;;;;;;2.63;1.30;;;;;;;18.15;47.37;99957.91;5021127;28;20022;-51
2023/01/14 11:33:28;;;;;;;2.42;1.27;;;;;;;18.13;47.58;99941.09;5021993;28;20097;-52
2023/01/14 11:35:55;;;;;;;2.67;1.98;;;;;;;18.14;47.50;99930.16;5021701;28;20048;-49
2023/01/14 11:38:25;;;;;;;5.50;1.60;;;;;;;18.12;47.58;99928.69;5004229;28;20054;-51
2023/01/14 11:43:54;;;;;;;2.25;1.30;;;;;;;18.15;47.67;99912.16;5019532;28;20133;-52
2023/01/14 11:46:19;;;;;;;2.17;1.10;;;;;;;18.08;47.55;99900.47;4985155;28;20085;-51
2023/01/14 11:48:58;;;;;;;4.68;2.30;;;;;;;18.05;47.62;99884.72;5020384;28;20049;-48
2023/01/14 11:51:25;;;;;;;2.30;1.30;;;;;;;17.96;47.22;99852.53;5019139;28;20034;-49
2023/01/14 11:53:52;;;;;;;2.25;1.40;;;;;;;18.12;47.43;99891.84;5017024;28;20022;-51
2023/01/14 11:56:34;;;;;;;4.65;1.30;;;;;;;18.12;47.53;99870.31;5021301;28;20049;-53
2023/01/14 11:59:33;;;;;;;2.03;1.10;;;;;;;18.11;47.55;99865.16;5011835;28;20034;-52
2023/01/14 12:02:13;;;;;;;2.03;1.10;;;;;;;18.11;47.34;99870.53;4981065;28;20037;-49